createdAt,value
2023-09-27T00:01:12.343Z,18.28
2023-09-27T00:04:36.830Z,18.09
2023-09-27T00:08:00.814Z,17.89
2023-09-27T00:11:25.711Z,17.81
2023-09-27T00:14:50.774Z,18.01
2023-09-27T00:18:16.559Z,17.82
2023-09-27T00:21:40.645Z,18.05
2023-09-27T00:25:06.234Z,18.03
2023-09-27T00:28:30.355Z,18.10
2023-09-27T00:31:56.263Z,17.85
2023-09-27T00:35:24.331Z,17.81
2023-09-27T00:38:49.237Z,17.81
2023-09-27T00:42:14.550Z,17.90
2023-09-27T00:45:38.779Z,18.09
2023-09-27T00:49:04.191Z,17.90
2023-09-27T00:52:28.487Z,18.06
2023-09-27T00:55:52.203Z,17.97
2023-09-27T00:59:16.918Z,18.29
2023-09-27T01:02:41.662Z,18.01
2023-09-27T01:06:07.337Z,17.97
2023-09-27T01:09:31.903Z,17.92
2023-09-27T01:12:56.401Z,18.11
2023-09-27T01:16:20.477Z,17.90
2023-09-27T01:19:44.811Z,17.90
2023-09-27T01:23:09.752Z,17.98
2023-09-27T01:26:34.262Z,18.15
2023-09-27T01:29:58.088Z,17.99
2023-09-27T01:33:22.727Z,18.14
2023-09-27T01:36:46.259Z,17.94
2023-09-27T01:40:17.843Z,18.09
2023-09-27T01:43:41.598Z,17.74
2023-09-27T01:47:06.127Z,17.87
2023-09-27T01:50:30.344Z,17.64
2023-09-27T01:53:55.459Z,17.81
2023-09-27T01:57:20.754Z,17.56
2023-09-27T02:00:45.012Z,17.50
2023-09-27T02:04:09.462Z,17.70
2023-09-27T02:07:33.519Z,17.78
2023-09-27T02:10:58.128Z,17.58
2023-09-27T02:14:23.647Z,17.70
2023-09-27T02:17:47.793Z,17.56
2023-09-27T02:21:12.168Z,17.49
2023-09-27T02:24:36.203Z,17.32
2023-09-27T02:28:01.204Z,17.38
2023-09-27T02:31:26.971Z,17.24
2023-09-27T02:34:51.371Z,16.99
2023-09-27T02:38:15.610Z,17.01
2023-09-27T02:41:41.283Z,17.00
2023-09-27T02:45:05.304Z,16.84
2023-09-27T02:48:31.504Z,16.56
2023-09-27T02:51:55.584Z,16.55
2023-09-27T02:55:19.867Z,16.36
2023-09-27T02:58:46.517Z,16.58
2023-09-27T03:02:11.107Z,16.46
2023-09-27T03:05:40.155Z,16.33
2023-09-27T03:09:05.336Z,16.24
2023-09-27T03:12:29.821Z,16.24
2023-09-27T03:16:00.118Z,16.18
2023-09-27T03:19:24.652Z,16.22
2023-09-27T03:22:50.730Z,16.45
2023-09-27T03:26:14.507Z,16.28
2023-09-27T03:29:38.590Z,16.36
2023-09-27T03:33:02.669Z,16.61
2023-09-27T03:36:26.964Z,16.36
2023-09-27T03:39:54.278Z,16.21
2023-09-27T03:43:18.669Z,16.24
2023-09-27T03:46:42.868Z,16.16
2023-09-27T03:50:08.683Z,16.25
2023-09-27T03:53:33.982Z,16.30
2023-09-27T03:56:59.445Z,16.40
2023-09-27T04:00:24.875Z,16.36
2023-09-27T04:03:50.531Z,16.26
2023-09-27T04:07:14.842Z,16.46
2023-09-27T04:10:39.897Z,16.25
2023-09-27T04:14:07.338Z,16.16
2023-09-27T04:17:31.666Z,16.22
2023-09-27T04:20:56.183Z,16.18
2023-09-27T04:24:20.836Z,16.18
2023-09-27T04:27:44.902Z,16.18
2023-09-27T04:31:11.024Z,16.17
2023-09-27T04:34:34.699Z,15.91
2023-09-27T04:37:59.202Z,15.94
2023-09-27T04:41:23.161Z,16.08
2023-09-27T04:44:47.651Z,15.93
2023-09-27T04:48:13.296Z,15.80
2023-09-27T04:51:37.579Z,15.82
2023-09-27T04:55:01.915Z,15.78
2023-09-27T04:58:26.519Z,16.00
2023-09-27T05:01:50.888Z,15.89
2023-09-27T05:05:17.858Z,15.87
2023-09-27T05:08:41.954Z,15.80
2023-09-27T05:12:06.587Z,16.03
2023-09-27T05:15:30.374Z,15.98
2023-09-27T05:18:55.097Z,16.08
2023-09-27T05:22:21.294Z,16.19
2023-09-27T05:25:46.252Z,16.31
2023-09-27T05:29:15.350Z,16.45
2023-09-27T05:32:39.569Z,16.48
2023-09-27T05:36:03.253Z,16.56
2023-09-27T05:39:28.788Z,16.74
2023-09-27T05:42:52.672Z,16.79
2023-09-27T05:46:17.603Z,16.99
2023-09-27T05:49:42.816Z,17.09
2023-09-27T05:53:08.140Z,17.29
2023-09-27T05:56:34.555Z,17.39
2023-09-27T06:00:00.366Z,17.66
2023-09-27T06:03:27.588Z,17.80
2023-09-27T06:06:52.604Z,18.06
2023-09-27T06:10:17.122Z,18.19
2023-09-27T06:13:43.461Z,18.35
2023-09-27T06:17:07.837Z,18.46
2023-09-27T06:20:34.172Z,18.67
2023-09-27T06:23:57.967Z,18.86
2023-09-27T06:27:21.797Z,19.02
2023-09-27T06:30:47.209Z,19.20
2023-09-27T06:34:11.539Z,19.18
2023-09-27T06:37:34.992Z,19.22
2023-09-27T06:40:59.052Z,19.44
2023-09-27T06:44:22.260Z,19.73
2023-09-27T06:47:50.906Z,19.89
2023-09-27T06:51:15.159Z,19.95
2023-09-27T06:54:39.748Z,20.19
2023-09-27T06:58:03.488Z,20.33
2023-09-27T07:01:28.225Z,20.50
2023-09-27T07:04:53.479Z,20.66
2023-09-27T07:08:18.167Z,20.83
2023-09-27T07:11:45.132Z,20.89
2023-09-27T07:15:11.411Z,21.18
2023-09-27T07:18:36.763Z,21.05
2023-09-27T07:22:09.625Z,21.37
2023-09-27T07:25:35.842Z,21.36
2023-09-27T07:28:59.299Z,21.87
2023-09-27T07:32:23.509Z,21.90
2023-09-27T07:35:53.752Z,22.01
2023-09-27T07:39:19.237Z,22.21
2023-09-27T07:42:44.352Z,22.52
2023-09-27T07:46:08.953Z,23.05
2023-09-27T07:49:34.153Z,23.08
2023-09-27T07:52:58.211Z,23.43
2023-09-27T07:56:25.795Z,23.71
2023-09-27T07:59:50.814Z,24.36
2023-09-27T08:03:16.269Z,24.86
2023-09-27T08:06:41.198Z,24.60
2023-09-27T08:10:19.161Z,24.84
2023-09-27T08:13:47.662Z,25.15
2023-09-27T08:17:11.824Z,25.80
2023-09-27T08:20:36.504Z,25.59
2023-09-27T08:24:00.625Z,25.15
2023-09-27T08:27:25.171Z,25.44
2023-09-27T08:30:51.269Z,25.66
2023-09-27T08:34:16.068Z,26.33
2023-09-27T08:37:40.002Z,26.39
2023-09-27T08:41:05.392Z,27.17
2023-09-27T08:44:29.779Z,26.66
2023-09-27T08:47:55.859Z,26.96
2023-09-27T08:51:20.463Z,26.93
2023-09-27T08:54:45.019Z,26.63
2023-09-27T08:58:09.761Z,27.12
2023-09-27T09:01:35.796Z,27.48
2023-09-27T09:05:02.176Z,28.00
2023-09-27T09:08:42.764Z,29.11
2023-09-27T09:12:10.530Z,28.51
2023-09-27T09:15:42.870Z,29.48
2023-09-27T09:19:41.142Z,28.81
2023-09-27T09:23:14.125Z,28.37
2023-09-27T09:26:38.773Z,29.45
2023-09-27T09:30:08.215Z,30.03
2023-09-27T09:33:38.340Z,29.64
2023-09-27T09:37:02.676Z,29.61
2023-09-27T09:40:28.482Z,29.37
2023-09-27T09:43:53.405Z,29.51
2023-09-27T09:47:18.970Z,30.75
2023-09-27T09:50:43.537Z,30.22
2023-09-27T09:54:08.317Z,30.36
2023-09-27T09:57:52.338Z,30.73
2023-09-27T10:01:23.431Z,30.74
2023-09-27T10:04:48.324Z,30.94
2023-09-27T10:08:12.156Z,30.30
2023-09-27T10:11:38.255Z,30.02
2023-09-27T10:15:04.140Z,30.45
2023-09-27T10:18:35.167Z,31.18
2023-09-27T10:22:07.413Z,31.94
2023-09-27T10:25:38.399Z,31.43
2023-09-27T10:29:15.580Z,31.98
2023-09-27T10:32:40.503Z,33.16
2023-09-27T10:36:29.270Z,32.77
2023-09-27T10:40:22.521Z,32.30
2023-09-27T10:43:46.285Z,33.09
2023-09-27T10:47:10.770Z,32.92
2023-09-27T10:50:36.163Z,33.12
2023-09-27T10:54:02.020Z,32.41
2023-09-27T10:57:28.887Z,32.23
2023-09-27T11:00:54.491Z,32.19
2023-09-27T11:04:18.287Z,32.60
2023-09-27T11:07:52.667Z,32.40
2023-09-27T11:11:17.793Z,32.66
2023-09-27T11:14:47.350Z,32.63
2023-09-27T11:18:12.342Z,32.81
2023-09-27T11:21:36.749Z,32.81
2023-09-27T11:25:02.324Z,33.41
2023-09-27T11:28:26.903Z,33.60
2023-09-27T11:31:57.843Z,32.77
2023-09-27T11:35:22.223Z,33.87
2023-09-27T11:38:51.798Z,33.53
2023-09-27T11:42:17.731Z,32.84
2023-09-27T11:45:46.059Z,33.61
2023-09-27T11:49:10.004Z,34.46
2023-09-27T11:52:32.753Z,33.76
2023-09-27T11:55:56.961Z,33.65
2023-09-27T11:59:21.113Z,34.57
2023-09-27T12:02:56.426Z,33.58
2023-09-27T12:06:21.186Z,34.34
2023-09-27T12:09:44.026Z,33.72
2023-09-27T12:13:07.393Z,35.21
2023-09-27T12:16:32.460Z,34.15
2023-09-27T12:19:56.115Z,33.79
2023-09-27T12:23:20.072Z,33.61
2023-09-27T12:26:44.670Z,33.01
2023-09-27T12:30:10.059Z,34.09
2023-09-27T12:33:35.791Z,34.25
2023-09-27T12:37:00.025Z,33.74
2023-09-27T12:40:25.874Z,33.90
2023-09-27T12:43:49.710Z,35.00
2023-09-27T12:47:12.955Z,34.60
2023-09-27T12:50:37.582Z,33.94
2023-09-27T12:54:00.706Z,34.46
2023-09-27T12:57:23.671Z,33.45
2023-09-27T13:00:46.932Z,34.80
2023-09-27T13:04:10.690Z,34.43
2023-09-27T13:07:35.426Z,33.66
2023-09-27T13:10:58.474Z,34.22
2023-09-27T13:14:22.208Z,35.03
2023-09-27T13:17:45.353Z,35.22
2023-09-27T13:21:12.345Z,35.30
2023-09-27T13:24:37.071Z,35.34
2023-09-27T13:28:00.237Z,35.28
2023-09-27T13:31:25.033Z,35.45
2023-09-27T13:34:49.365Z,36.01
2023-09-27T13:38:13.030Z,35.92
2023-09-27T13:41:44.177Z,34.76
2023-09-27T13:45:09.115Z,33.98
2023-09-27T13:48:34.370Z,33.72
2023-09-27T13:51:58.411Z,34.27
2023-09-27T13:55:23.454Z,34.48
2023-09-27T13:58:48.792Z,33.71
2023-09-27T14:02:16.170Z,34.49
2023-09-27T14:05:40.520Z,34.27
2023-09-27T14:09:05.314Z,34.14
2023-09-27T14:12:30.134Z,34.45
2023-09-27T14:15:55.927Z,34.25
2023-09-27T14:19:20.974Z,34.08
2023-09-27T14:22:45.806Z,34.98
2023-09-27T14:26:10.817Z,34.29
2023-09-27T14:29:36.495Z,33.84
2023-09-27T14:33:03.984Z,33.46
2023-09-27T14:36:27.067Z,33.78
2023-09-27T14:39:50.183Z,33.85
2023-09-27T14:43:13.751Z,33.48
2023-09-27T14:46:37.842Z,33.46
2023-09-27T14:50:02.328Z,33.49
2023-09-27T14:53:26.100Z,32.38
2023-09-27T14:56:50.104Z,32.39
2023-09-27T15:00:15.039Z,32.17
2023-09-27T15:03:39.344Z,32.45
2023-09-27T15:07:05.645Z,31.86
2023-09-27T15:10:29.579Z,30.96
2023-09-27T15:13:57.694Z,30.42
2023-09-27T15:17:22.236Z,31.09
2023-09-27T15:20:46.781Z,30.78
2023-09-27T15:24:12.801Z,30.80
2023-09-27T15:27:37.167Z,30.22
2023-09-27T15:31:00.958Z,30.12
2023-09-27T15:34:25.415Z,29.88
2023-09-27T15:37:53.716Z,29.50
2023-09-27T15:41:20.013Z,30.29
2023-09-27T15:44:43.929Z,29.86
2023-09-27T15:48:09.262Z,29.57
2023-09-27T15:51:33.303Z,29.99
2023-09-27T15:54:57.595Z,28.98
2023-09-27T15:58:23.364Z,29.03
2023-09-27T16:01:47.391Z,28.52
2023-09-27T16:05:12.407Z,28.27
2023-09-27T16:08:36.091Z,27.55
2023-09-27T16:12:00.477Z,27.03
2023-09-27T16:15:27.433Z,26.76
2023-09-27T16:18:51.522Z,26.04
2023-09-27T16:22:14.994Z,25.91
2023-09-27T16:25:39.724Z,25.47
2023-09-27T16:29:04.285Z,24.97
2023-09-27T16:32:31.000Z,24.71
2023-09-27T16:35:55.940Z,24.32
2023-09-27T16:39:20.746Z,24.07
2023-09-27T16:42:45.648Z,23.70
2023-09-27T16:46:10.454Z,23.36
2023-09-27T16:49:36.381Z,23.20
2023-09-27T16:53:01.034Z,22.90
2023-09-27T16:56:25.639Z,23.05
2023-09-27T16:59:50.689Z,23.07
2023-09-27T17:03:15.495Z,22.88
2023-09-27T17:06:42.617Z,22.69
2023-09-27T17:10:10.625Z,22.34
2023-09-27T17:13:37.470Z,22.34
2023-09-27T17:17:03.953Z,22.13
2023-09-27T17:20:30.790Z,21.97
2023-09-27T17:23:58.842Z,21.78
2023-09-27T17:27:25.794Z,21.82
2023-09-27T17:30:52.668Z,21.73
2023-09-27T17:34:19.348Z,21.82
2023-09-27T17:37:46.313Z,21.42
2023-09-27T17:41:14.318Z,21.48
2023-09-27T17:44:40.541Z,21.67
2023-09-27T17:48:07.957Z,20.91
2023-09-27T17:51:35.569Z,20.96
2023-09-27T17:55:02.970Z,21.06
2023-09-27T17:58:31.454Z,21.09
2023-09-27T18:01:58.880Z,21.11
2023-09-27T18:05:25.582Z,20.89
2023-09-27T18:08:51.258Z,20.69
2023-09-27T18:12:18.279Z,20.62
2023-09-27T18:15:46.216Z,20.48
2023-09-27T18:19:14.373Z,20.35
2023-09-27T18:22:40.728Z,20.37
2023-09-27T18:26:07.152Z,20.48
2023-09-27T18:29:34.245Z,20.34
2023-09-27T18:33:03.272Z,19.93
2023-09-27T18:36:29.234Z,19.68
2023-09-27T18:39:56.034Z,19.70
2023-09-27T18:43:22.925Z,19.71
2023-09-27T18:46:49.259Z,19.48
2023-09-27T18:50:19.908Z,19.37
2023-09-27T18:53:46.194Z,19.55
2023-09-27T18:57:13.282Z,19.73
2023-09-27T19:00:42.974Z,19.50
2023-09-27T19:04:09.647Z,19.56
2023-09-27T19:07:41.182Z,19.55
2023-09-27T19:11:08.485Z,19.39
2023-09-27T19:14:34.380Z,19.46
2023-09-27T19:18:01.276Z,19.39
2023-09-27T19:21:28.510Z,19.45
2023-09-27T19:24:57.264Z,19.54
2023-09-27T19:28:24.964Z,19.64
2023-09-27T19:31:52.196Z,19.70
2023-09-27T19:35:19.847Z,19.83
2023-09-27T19:38:46.347Z,19.94
2023-09-27T19:42:17.092Z,19.98
2023-09-27T19:45:43.243Z,19.91
2023-09-27T19:49:12.938Z,19.92
2023-09-27T19:52:40.294Z,20.38
2023-09-27T19:56:06.789Z,20.64
2023-09-27T19:59:34.272Z,20.71
2023-09-27T20:03:00.314Z,20.88
2023-09-27T20:06:27.322Z,20.87
2023-09-27T20:09:52.224Z,21.12
2023-09-27T20:13:17.698Z,20.98
2023-09-27T20:16:45.351Z,20.93
2023-09-27T20:20:12.380Z,21.01
2023-09-27T20:23:36.211Z,21.01
2023-09-27T20:27:02.819Z,20.96
2023-09-27T20:30:26.935Z,20.82
2023-09-27T20:33:52.828Z,20.96
2023-09-27T20:37:16.582Z,20.84
2023-09-27T20:40:41.172Z,20.81
2023-09-27T20:44:04.953Z,20.16
2023-09-27T20:47:29.400Z,19.78
2023-09-27T20:50:58.595Z,19.53
2023-09-27T20:54:23.186Z,19.18
2023-09-27T20:57:48.943Z,19.37
2023-09-27T21:01:26.281Z,19.11
2023-09-27T21:04:50.460Z,18.70
2023-09-27T21:08:16.858Z,18.84
2023-09-27T21:11:40.583Z,18.58
2023-09-27T21:15:05.195Z,18.78
2023-09-27T21:18:28.822Z,18.67
2023-09-27T21:21:53.471Z,18.61
2023-09-27T21:25:19.275Z,18.56
2023-09-27T21:28:43.796Z,18.60
2023-09-27T21:32:07.627Z,18.61
2023-09-27T21:35:31.990Z,18.37
2023-09-27T21:38:55.975Z,18.48
2023-09-27T21:42:22.209Z,18.42
2023-09-27T21:45:46.431Z,18.40
2023-09-27T21:49:10.675Z,18.23
2023-09-27T21:52:37.457Z,18.19
2023-09-27T21:56:01.891Z,18.44
2023-09-27T21:59:27.390Z,18.05
2023-09-27T22:02:51.908Z,17.90
2023-09-27T22:06:16.959Z,17.76
2023-09-27T22:09:42.267Z,17.78
2023-09-27T22:13:23.024Z,17.45
2023-09-27T22:16:49.621Z,17.69
2023-09-27T22:20:14.242Z,17.86
2023-09-27T22:23:41.747Z,17.61
2023-09-27T22:27:09.418Z,17.63
2023-09-27T22:30:33.346Z,17.82
2023-09-27T22:33:59.268Z,17.78
2023-09-27T22:37:25.667Z,18.19
2023-09-27T22:40:50.355Z,17.87
2023-09-27T22:44:20.866Z,18.08
2023-09-27T22:47:45.881Z,18.39
2023-09-27T22:51:11.209Z,18.30
2023-09-27T22:54:35.817Z,18.17
2023-09-27T22:58:00.049Z,18.14
2023-09-27T23:01:29.613Z,17.96
2023-09-27T23:04:53.576Z,18.01
2023-09-27T23:08:27.761Z,17.72
2023-09-27T23:12:01.637Z,17.45
2023-09-27T23:15:39.488Z,17.47
2023-09-27T23:19:02.362Z,17.27
2023-09-27T23:22:26.777Z,16.98
2023-09-27T23:25:53.833Z,17.15
2023-09-27T23:29:37.520Z,17.12
2023-09-27T23:33:02.922Z,17.05
2023-09-27T23:36:27.702Z,17.07
2023-09-27T23:39:52.110Z,17.14
2023-09-27T23:43:18.050Z,17.12
2023-09-27T23:46:43.324Z,17.11
2023-09-27T23:50:10.238Z,17.17
2023-09-27T23:53:34.567Z,17.06
2023-09-27T23:57:00.416Z,16.97
